TimeAKST,TemperatureF,Dew PointF,Humidity,Sea Level PressureIn,VisibilityMPH,Wind Direction,Wind SpeedMPH,Gust SpeedMPH,PrecipitationIn,Events,Conditions,WindDirDegrees,DateUTC
12:16 AM,12.2,8.6,85,29.43,5.0,Calm,Calm,-,N/A,,Overcast,0,2013-01-15 09:16:00
12:36 AM,12.2,8.6,85,29.44,10.0,Calm,Calm,-,N/A,,Overcast,0,2013-01-15 09:36:00
12:56 AM,12.2,8.6,85,29.45,10.0,Calm,Calm,-,N/A,,Overcast,0,2013-01-15 09:56:00
1:16 AM,14.0,6.8,73,29.44,10.0,Calm,Calm,-,N/A,,Overcast,0,2013-01-15 10:16:00
1:36 AM,14.0,6.8,73,29.45,9.0,Calm,Calm,-,N/A,,Overcast,0,2013-01-15 10:36:00
1:56 AM,15.8,6.8,68,29.45,9.0,Calm,Calm,-,N/A,,Overcast,0,2013-01-15 10:56:00
2:16 AM,14.0,6.8,73,29.45,10.0,Calm,Calm,-,N/A,,Overcast,0,2013-01-15 11:16:00
2:36 AM,12.2,6.8,79,29.46,9.0,Calm,Calm,-,N/A,,Overcast,0,2013-01-15 11:36:00
2:56 AM,12.2,8.6,85,29.46,9.0,Calm,Calm,-,N/A,,Overcast,0,2013-01-15 11:56:00
3:16 AM,12.2,8.6,85,29.46,10.0,Calm,Calm,-,N/A,,Overcast,0,2013-01-15 12:16:00
3:36 AM,10.4,6.8,85,29.47,10.0,Calm,Calm,-,N/A,,Overcast,0,2013-01-15 12:36:00
3:56 AM,10.4,6.8,85,29.47,8.0,Calm,Calm,-,N/A,,Overcast,0,2013-01-15 12:56:00
4:16 AM,10.4,6.8,85,29.48,5.0,Calm,Calm,-,N/A,,Overcast,0,2013-01-15 13:16:00
4:36 AM,10.4,6.8,85,29.48,5.0,Calm,Calm,-,N/A,,Overcast,0,2013-01-15 13:36:00
4:56 AM,8.6,8.6,100,29.49,9.0,Calm,Calm,-,N/A,,Overcast,0,2013-01-15 13:56:00
5:16 AM,8.6,8.6,100,29.50,10.0,North,-9999.0,-,N/A,,Overcast,0,2013-01-15 14:16:00
5:36 AM,8.6,-9999,N/A,29.50,10.0,Calm,Calm,-,N/A,,Overcast,0,2013-01-15 14:36:00
5:56 AM,8.6,8.6,100,29.51,10.0,Calm,Calm,-,N/A,,Overcast,0,2013-01-15 14:56:00
6:16 AM,8.6,8.6,100,29.52,9.0,Calm,Calm,-,N/A,,Overcast,0,2013-01-15 15:16:00
6:36 AM,8.6,6.8,92,29.52,8.0,Calm,Calm,-,N/A,,Overcast,0,2013-01-15 15:36:00
6:56 AM,10.4,10.4,100,29.53,10.0,Calm,Calm,-,N/A,,Overcast,0,2013-01-15 15:56:00
7:16 AM,14.0,-9999,N/A,29.53,10.0,Calm,Calm,-,N/A,,Overcast,0,2013-01-15 16:16:00
7:36 AM,12.2,-9999,N/A,29.54,10.0,WSW,5.8,-,N/A,,Overcast,250,2013-01-15 16:36:00
7:56 AM,12.2,-9999,N/A,29.54,10.0,WSW,5.8,-,N/A,,Overcast,250,2013-01-15 16:56:00
8:16 AM,12.2,-9999,N/A,29.56,10.0,WSW,4.6,-,N/A,,Overcast,250,2013-01-15 17:16:00
8:36 AM,12.2,12.2,100,29.57,10.0,WSW,5.8,-,N/A,,Overcast,250,2013-01-15 17:36:00
8:56 AM,10.4,10.4,100,29.57,10.0,WSW,5.8,-,N/A,,Overcast,240,2013-01-15 17:56:00
9:16 AM,10.4,10.4,100,29.58,10.0,WSW,5.8,-,N/A,,Overcast,250,2013-01-15 18:16:00
9:36 AM,10.4,10.4,100,29.60,10.0,WSW,4.6,-,N/A,,Overcast,240,2013-01-15 18:36:00
9:56 AM,10.4,10.4,100,29.60,10.0,WSW,4.6,-,N/A,,Overcast,240,2013-01-15 18:56:00
10:16 AM,8.6,-9999,N/A,29.61,10.0,WSW,5.8,-,N/A,,Overcast,250,2013-01-15 19:16:00
10:36 AM,8.6,-9999,N/A,29.62,10.0,WSW,5.8,-,N/A,,Overcast,250,2013-01-15 19:36:00
10:56 AM,8.6,-9999,N/A,29.63,10.0,WSW,4.6,-,N/A,,Overcast,250,2013-01-15 19:56:00
11:16 AM,8.6,-9999,N/A,29.64,10.0,WSW,5.8,-,N/A,,Overcast,250,2013-01-15 20:16:00
11:36 AM,8.6,-9999,N/A,29.66,10.0,WSW,3.5,-,N/A,,Overcast,250,2013-01-15 20:36:00
12:16 PM,8.6,5.0,85,29.67,10.0,WSW,4.6,-,N/A,,Overcast,250,2013-01-15 21:16:00
12:36 PM,6.8,-0.4,72,29.68,10.0,WSW,10.4,-,N/A,,Overcast,250,2013-01-15 21:36:00
12:56 PM,6.8,-9.4,48,29.70,10.0,WSW,8.1,-,N/A,,Scattered Clouds,250,2013-01-15 21:56:00
1:16 PM,6.8,-11.2,44,29.70,10.0,WSW,8.1,-,N/A,,Clear,250,2013-01-15 22:16:00
1:36 PM,6.8,-7.6,52,29.71,10.0,West,8.1,-,N/A,,Scattered Clouds,260,2013-01-15 22:36:00
1:56 PM,5.0,3.2,92,29.72,10.0,WSW,9.2,-,N/A,,Partly Cloudy,250,2013-01-15 22:56:00
2:16 PM,5.0,-9999,N/A,29.73,10.0,WSW,8.1,-,N/A,,Clear,250,2013-01-15 23:16:00
2:36 PM,3.2,3.2,100,29.74,10.0,WSW,6.9,-,N/A,,Clear,240,2013-01-15 23:36:00
2:56 PM,1.4,-11.2,56,29.75,10.0,WSW,5.8,-,N/A,,Clear,250,2013-01-15 23:56:00
3:16 PM,3.2,-16.6,39,29.75,10.0,Calm,Calm,-,N/A,,Clear,0,2013-01-16 00:16:00
3:36 PM,3.2,1.4,92,29.76,10.0,WSW,6.9,-,N/A,,Clear,250,2013-01-16 00:36:00
3:56 PM,3.2,-9999,N/A,29.77,10.0,WSW,4.6,-,N/A,,Scattered Clouds,250,2013-01-16 00:56:00
4:16 PM,3.2,3.2,100,29.77,10.0,WSW,9.2,-,N/A,,Partly Cloudy,250,2013-01-16 01:16:00
4:36 PM,3.2,-13.0,47,29.77,10.0,WSW,9.2,-,N/A,,Clear,250,2013-01-16 01:36:00
4:56 PM,3.2,-14.8,43,29.78,10.0,WSW,11.5,-,N/A,,Clear,240,2013-01-16 01:56:00
5:16 PM,1.4,-2.2,85,29.79,10.0,WSW,10.4,-,N/A,,Clear,250,2013-01-16 02:16:00
5:36 PM,1.4,-9999,N/A,29.80,10.0,WSW,10.4,-,N/A,,Clear,250,2013-01-16 02:36:00
5:56 PM,1.4,1.4,100,29.80,10.0,WSW,9.2,-,N/A,,Clear,250,2013-01-16 02:56:00
6:16 PM,1.4,-14.8,47,29.81,10.0,WSW,10.4,-,N/A,,Mostly Cloudy,240,2013-01-16 03:16:00
6:36 PM,1.4,-14.8,47,29.82,10.0,WSW,8.1,-,N/A,,Mostly Cloudy,240,2013-01-16 03:36:00
6:56 PM,1.4,1.4,100,29.82,10.0,SW,9.2,-,N/A,,Overcast,230,2013-01-16 03:56:00
7:16 PM,1.4,1.4,100,29.83,10.0,WSW,9.2,-,N/A,,Mostly Cloudy,240,2013-01-16 04:16:00
7:36 PM,1.4,-11.2,56,29.83,10.0,WSW,8.1,-,N/A,,Partly Cloudy,250,2013-01-16 04:36:00
7:56 PM,1.4,-20.2,36,29.83,10.0,WSW,8.1,-,N/A,,Clear,240,2013-01-16 04:56:00
8:16 PM,1.4,-2.2,85,29.84,10.0,WSW,6.9,-,N/A,,Mostly Cloudy,240,2013-01-16 05:16:00
8:36 PM,1.4,-9999,N/A,29.85,10.0,WSW,6.9,-,N/A,,Mostly Cloudy,250,2013-01-16 05:36:00
8:56 PM,-0.4,-7.6,72,29.85,10.0,WSW,4.6,-,N/A,,Scattered Clouds,250,2013-01-16 05:56:00
9:16 PM,-0.4,-22.0,36,29.86,10.0,Calm,Calm,-,N/A,,Partly Cloudy,0,2013-01-16 06:16:00
9:36 PM,-0.4,-0.4,100,29.87,10.0,Calm,Calm,-,N/A,,Mostly Cloudy,0,2013-01-16 06:36:00
9:56 PM,-2.2,-2.2,100,29.87,10.0,Calm,Calm,-,N/A,,Overcast,0,2013-01-16 06:56:00
10:16 PM,-4.0,-23.8,38,29.87,10.0,Calm,Calm,-,N/A,,Overcast,0,2013-01-16 07:16:00
10:36 PM,-5.8,-7.6,92,29.88,10.0,Calm,Calm,-,N/A,,Scattered Clouds,0,2013-01-16 07:36:00
10:56 PM,-4.0,-9.4,78,29.88,10.0,Calm,Calm,-,N/A,,Scattered Clouds,0,2013-01-16 07:56:00
11:16 PM,-5.8,-29.2,32,29.89,10.0,SW,4.6,-,N/A,,Overcast,220,2013-01-16 08:16:00
11:36 PM,-2.2,-9999,N/A,29.90,10.0,SW,4.6,-,N/A,,Mostly Cloudy,230,2013-01-16 08:36:00
11:56 PM,-2.2,-11.2,66,29.90,10.0,SW,4.6,-,N/A,,Mostly Cloudy,230,2013-01-16 08:56:00